createdAt,value
2018-09-25T00:02:11.185Z,102780.83
2018-09-25T00:04:47.994Z,102780.78
2018-09-25T00:07:23.044Z,102784.61
2018-09-25T00:09:57.952Z,102780.48
2018-09-25T00:12:32.957Z,102779.36
2018-09-25T00:15:08.026Z,102787.81
2018-09-25T00:17:42.881Z,102789.70
2018-09-25T00:20:17.805Z,102797.06
2018-09-25T00:22:52.686Z,102796.49
2018-09-25T00:25:28.679Z,102795.07
2018-09-25T00:28:05.242Z,102799.41
2018-09-25T00:30:40.994Z,102798.03
2018-09-25T00:33:17.833Z,102801.56
2018-09-25T00:35:52.862Z,102804.55
2018-09-25T00:38:30.447Z,102799.63
2018-09-25T00:41:07.058Z,102796.59
2018-09-25T00:43:41.988Z,102805.90
2018-09-25T00:46:18.565Z,102797.62
2018-09-25T00:48:54.170Z,102805.04
2018-09-25T00:51:30.228Z,102805.28
2018-09-25T00:54:05.327Z,102798.70
2018-09-25T00:56:41.519Z,102800.86
2018-09-25T00:59:17.486Z,102797.55
2018-09-25T01:01:54.216Z,102805.45
2018-09-25T01:04:31.360Z,102804.88
2018-09-25T01:07:06.598Z,102806.80
2018-09-25T01:09:42.150Z,102810.86
2018-09-25T01:12:17.131Z,102811.95
2018-09-25T01:14:52.393Z,102814.11
2018-09-25T01:17:30.666Z,102807.24
2018-09-25T01:20:06.373Z,102806.95
2018-09-25T01:22:42.303Z,102807.75
2018-09-25T01:25:19.413Z,102811.58
2018-09-25T01:27:57.151Z,102815.39
2018-09-25T01:30:33.598Z,102812.89
2018-09-25T01:33:10.586Z,102820.30
2018-09-25T01:35:48.345Z,102822.98
2018-09-25T01:38:24.543Z,102821.61
2018-09-25T01:41:02.766Z,102832.55
2018-09-25T01:43:42.809Z,102824.57
2018-09-25T01:46:21.301Z,102831.92
2018-09-25T01:48:57.330Z,102839.33
2018-09-25T01:51:34.619Z,102835.74
2018-09-25T01:54:11.996Z,102828.84
2018-09-25T01:56:49.165Z,102830.77
2018-09-25T01:59:27.786Z,102831.85
2018-09-25T02:02:03.974Z,102836.75
2018-09-25T02:04:39.567Z,102833.43
2018-09-25T02:07:17.722Z,102838.33
2018-09-25T02:09:55.876Z,102835.02
2018-09-25T02:12:35.429Z,102835.80
2018-09-25T02:15:15.848Z,102836.31
2018-09-25T02:17:53.157Z,102827.23
2018-09-25T02:20:30.721Z,102829.12
2018-09-25T02:23:08.468Z,102830.75
2018-09-25T02:25:43.386Z,102831.55
2018-09-25T02:28:20.445Z,102833.15
2018-09-25T02:30:57.997Z,102832.05
2018-09-25T02:33:34.005Z,102834.49
2018-09-25T02:36:11.304Z,102833.59
2018-09-25T02:38:50.399Z,102836.04
2018-09-25T02:41:29.624Z,102833.80
2018-09-25T02:44:06.780Z,102834.30
2018-09-25T02:46:46.549Z,102835.94
2018-09-25T02:49:23.379Z,102848.19
2018-09-25T02:52:05.388Z,102845.45
2018-09-25T02:54:42.256Z,102841.06
2018-09-25T02:57:18.073Z,102841.33
2018-09-25T03:00:02.233Z,102843.72
2018-09-25T03:02:39.410Z,102840.39
2018-09-25T03:05:13.993Z,102844.77
2018-09-25T03:07:51.297Z,102841.19
2018-09-25T03:10:29.757Z,102842.26
2018-09-25T03:13:04.835Z,102838.42
2018-09-25T03:15:39.891Z,102832.10
2018-09-25T03:18:15.005Z,102824.97
2018-09-25T03:20:49.929Z,102821.66
2018-09-25T03:23:24.813Z,102822.17
2018-09-25T03:25:59.768Z,102823.84
2018-09-25T03:28:34.866Z,102825.98
2018-09-25T03:31:09.814Z,102823.81
2018-09-25T03:33:44.934Z,102818.83
2018-09-25T03:36:19.768Z,102826.46
2018-09-25T03:38:56.042Z,102820.11
2018-09-25T03:41:31.881Z,102825.30
2018-09-25T03:44:07.378Z,102819.77
2018-09-25T03:46:43.383Z,102825.79
2018-09-25T03:49:18.421Z,102813.19
2018-09-25T03:51:53.474Z,102812.90
2018-09-25T03:54:28.515Z,102819.16
2018-09-25T03:57:03.459Z,102817.20
2018-09-25T03:59:38.380Z,102827.86
2018-09-25T04:02:13.316Z,102823.98
2018-09-25T04:04:48.166Z,102817.70
2018-09-25T04:07:23.221Z,102820.14
2018-09-25T04:09:58.287Z,102820.38
2018-09-25T04:12:33.379Z,102818.48
2018-09-25T04:15:08.408Z,102821.22
2018-09-25T04:17:43.450Z,102826.40
2018-09-25T04:20:18.455Z,102833.23
2018-09-25T04:22:53.391Z,102826.63
2018-09-25T04:25:28.308Z,102831.25
2018-09-25T04:28:03.327Z,102826.56
2018-09-25T04:30:38.157Z,102824.91
2018-09-25T04:33:13.274Z,102831.72
2018-09-25T04:35:48.360Z,102834.16
2018-09-25T04:38:23.382Z,102834.65
2018-09-25T04:40:58.396Z,102841.42
2018-09-25T04:43:33.494Z,102839.77
2018-09-25T04:46:15.573Z,102845.23
2018-09-25T04:48:50.574Z,102845.23
2018-09-25T04:51:25.681Z,102847.73
2018-09-25T04:54:00.613Z,102861.41
2018-09-25T04:56:35.554Z,102853.73
2018-09-25T04:59:10.639Z,102858.13
2018-09-25T05:01:45.658Z,102855.09
2018-09-25T05:04:20.542Z,102860.86
2018-09-25T05:06:55.563Z,102871.50
2018-09-25T05:09:30.562Z,102868.25
2018-09-25T05:12:05.600Z,102870.13
2018-09-25T05:14:40.617Z,102864.44
2018-09-25T05:17:15.558Z,102861.93
2018-09-25T05:19:50.531Z,102866.03
2018-09-25T05:22:25.534Z,102869.03
2018-09-25T05:25:00.672Z,102875.60
2018-09-25T05:27:35.719Z,102873.94
2018-09-25T05:30:10.978Z,102887.61
2018-09-25T05:32:46.103Z,102879.12
2018-09-25T05:35:21.005Z,102887.09
2018-09-25T05:37:55.906Z,102893.93
2018-09-25T05:40:30.842Z,102893.08
2018-09-25T05:43:06.002Z,102904.61
2018-09-25T05:45:40.892Z,102901.35
2018-09-25T05:48:15.943Z,102898.62
2018-09-25T05:50:50.830Z,102911.51
2018-09-25T05:53:25.761Z,102914.24
2018-09-25T05:56:00.753Z,102907.15
2018-09-25T05:58:35.663Z,102907.70
2018-09-25T06:01:10.651Z,102901.97
2018-09-25T06:03:45.620Z,102898.72
2018-09-25T06:06:20.444Z,102897.09
2018-09-25T06:08:55.500Z,102905.58
2018-09-25T06:11:30.601Z,102907.21
2018-09-25T06:14:05.621Z,102913.00
2018-09-25T06:16:40.683Z,102919.09
2018-09-25T06:19:15.732Z,102925.45
2018-09-25T06:21:53.282Z,102931.80
2018-09-25T06:24:28.992Z,102922.80
2018-09-25T06:27:04.075Z,102921.24
2018-09-25T06:29:40.325Z,102924.59
2018-09-25T06:32:18.719Z,102934.52
2018-09-25T06:34:53.821Z,102938.14
2018-09-25T06:37:28.771Z,102928.86
2018-09-25T06:40:03.675Z,102936.58
2018-09-25T06:42:38.751Z,102932.27
2018-09-25T06:45:17.462Z,102936.17
2018-09-25T06:47:52.687Z,102938.22
2018-09-25T06:50:33.918Z,102934.78
2018-09-25T06:53:10.228Z,102937.15
2018-09-25T06:55:45.363Z,102942.51
2018-09-25T06:58:20.192Z,102947.86
2018-09-25T07:00:56.042Z,102949.69
2018-09-25T07:03:31.001Z,102948.48
2018-09-25T07:06:06.085Z,102950.59
2018-09-25T07:08:41.073Z,102950.78
2018-09-25T07:11:16.039Z,102953.16
2018-09-25T07:13:51.033Z,102960.74
2018-09-25T07:16:26.174Z,102966.15
2018-09-25T07:19:01.101Z,102958.63
2018-09-25T07:21:36.222Z,102972.00
2018-09-25T07:24:11.154Z,102976.58
2018-09-25T07:26:46.048Z,102979.78
2018-09-25T07:29:21.075Z,102983.78
2018-09-25T07:31:55.987Z,102986.16
2018-09-25T07:34:31.953Z,102983.58
2018-09-25T07:37:06.937Z,102991.68
2018-09-25T07:39:42.001Z,102984.67
2018-09-25T07:42:17.793Z,102988.96
2018-09-25T07:44:52.594Z,102990.70
2018-09-25T07:47:29.203Z,102984.27
2018-09-25T07:50:04.243Z,102981.34
2018-09-25T07:52:39.351Z,102986.41
2018-09-25T07:55:14.417Z,102992.00
2018-09-25T07:57:50.076Z,102989.36
2018-09-25T08:00:25.160Z,102990.52
2018-09-25T08:03:00.212Z,102994.47
2018-09-25T08:05:35.945Z,102991.77
2018-09-25T08:08:10.863Z,102995.66
2018-09-25T08:10:45.875Z,102995.42
2018-09-25T08:13:20.692Z,103003.47
2018-09-25T08:15:55.672Z,103011.77
2018-09-25T08:18:30.705Z,103005.44
2018-09-25T08:21:05.687Z,103002.13
2018-09-25T08:23:40.495Z,103013.17
2018-09-25T08:26:15.495Z,103013.72
2018-09-25T08:28:50.334Z,103024.79
2018-09-25T08:31:25.211Z,103015.39
2018-09-25T08:34:00.205Z,103008.22
2018-09-25T08:36:35.199Z,103005.98
2018-09-25T08:39:13.635Z,103012.83
2018-09-25T08:41:49.246Z,103015.83
2018-09-25T08:44:24.134Z,103020.75
2018-09-25T08:46:59.153Z,103014.37
2018-09-25T08:49:34.231Z,103017.63
2018-09-25T08:52:09.344Z,103016.99
2018-09-25T08:54:44.303Z,103023.30
2018-09-25T08:57:19.296Z,103013.56
2018-09-25T08:59:54.368Z,103019.02
2018-09-25T09:02:29.228Z,103018.67
2018-09-25T09:05:04.280Z,103029.38
2018-09-25T09:07:39.358Z,103030.11
2018-09-25T09:10:14.365Z,103022.83
2018-09-25T09:12:49.307Z,103021.34
2018-09-25T09:15:24.220Z,103022.94
2018-09-25T09:17:59.257Z,103023.95
2018-09-25T09:20:34.292Z,103025.81
2018-09-25T09:23:09.352Z,103015.16
2018-09-25T09:25:44.431Z,103015.66
2018-09-25T09:28:19.554Z,103018.89
2018-09-25T09:30:54.705Z,103019.03
2018-09-25T09:33:29.771Z,103018.91
2018-09-25T09:36:04.891Z,103020.69
2018-09-25T09:38:39.813Z,103014.48
2018-09-25T09:41:14.955Z,103020.18
2018-09-25T09:43:50.141Z,103016.14
2018-09-25T09:46:25.040Z,103014.34
2018-09-25T09:48:59.932Z,103009.77
2018-09-25T09:51:35.084Z,103007.95
2018-09-25T09:54:10.155Z,103008.11
2018-09-25T09:56:45.328Z,103003.88
2018-09-25T09:59:20.325Z,103008.41
2018-09-25T10:01:55.382Z,103003.01
2018-09-25T10:04:30.401Z,103000.05
2018-09-25T10:07:05.629Z,102991.86
2018-09-25T10:09:40.745Z,102996.10
2018-09-25T10:12:15.876Z,102992.58
2018-09-25T10:14:50.875Z,102994.03
2018-09-25T10:17:25.983Z,102995.48
2018-09-25T10:20:01.065Z,102993.59
2018-09-25T10:22:36.183Z,102998.66
2018-09-25T10:25:11.391Z,102998.73
2018-09-25T10:27:46.313Z,103002.36
2018-09-25T10:30:21.392Z,102989.94
2018-09-25T10:32:56.452Z,102994.66
2018-09-25T10:35:31.442Z,102992.66
2018-09-25T10:38:06.478Z,102989.30
2018-09-25T10:40:41.453Z,102983.10
2018-09-25T10:43:16.538Z,102986.14
2018-09-25T10:45:51.542Z,102993.38
2018-09-25T10:48:26.544Z,102985.91
2018-09-25T10:51:01.457Z,102990.28
2018-09-25T10:53:36.292Z,102974.38
2018-09-25T10:56:11.402Z,102985.61
2018-09-25T10:58:46.167Z,102989.08
2018-09-25T11:01:21.393Z,102987.81
2018-09-25T11:03:57.771Z,102983.77
2018-09-25T11:06:32.573Z,102986.63
2018-09-25T11:09:07.632Z,102984.66
2018-09-25T11:11:45.768Z,102993.52
2018-09-25T11:14:20.727Z,102996.17
2018-09-25T11:16:55.849Z,102985.78
2018-09-25T11:19:31.137Z,102983.50
2018-09-25T11:22:06.127Z,102989.91
2018-09-25T11:24:41.133Z,102980.72
2018-09-25T11:27:16.125Z,102982.95
2018-09-25T11:29:52.810Z,102985.15
2018-09-25T11:32:29.858Z,102982.36
2018-09-25T11:35:04.737Z,102972.98
2018-09-25T11:37:39.863Z,102968.57
2018-09-25T11:40:15.301Z,102965.92
2018-09-25T11:42:50.286Z,102960.77
2018-09-25T11:45:25.358Z,102962.31
2018-09-25T11:48:00.402Z,102953.84
2018-09-25T11:50:35.604Z,102956.12
2018-09-25T11:53:10.658Z,102954.97
2018-09-25T11:55:45.693Z,102945.06
2018-09-25T11:58:20.628Z,102936.78
2018-09-25T12:00:55.554Z,102934.58
2018-09-25T12:03:30.630Z,102935.91
2018-09-25T12:06:05.650Z,102929.38
2018-09-25T12:08:40.557Z,102921.91
2018-09-25T12:11:15.627Z,102933.48
2018-09-25T12:13:50.724Z,102944.17
2018-09-25T12:16:25.786Z,102962.16
2018-09-25T12:19:00.910Z,102942.50
2018-09-25T12:21:35.751Z,102933.27
2018-09-25T12:24:13.424Z,102920.93
2018-09-25T12:26:48.292Z,102915.89
2018-09-25T12:29:23.251Z,102919.66
2018-09-25T12:31:58.308Z,102929.44
2018-09-25T12:34:33.340Z,102933.25
2018-09-25T12:37:10.523Z,102922.33
2018-09-25T12:39:45.563Z,102919.66
2018-09-25T12:42:20.519Z,102920.01
2018-09-25T12:44:55.524Z,102919.03
2018-09-25T12:47:30.524Z,102915.89
2018-09-25T12:50:05.410Z,102908.83
2018-09-25T12:52:40.271Z,102901.55
2018-09-25T12:55:15.315Z,102901.45
2018-09-25T12:57:50.380Z,102891.27
2018-09-25T13:00:25.488Z,102885.67
2018-09-25T13:03:00.574Z,102891.91
2018-09-25T13:05:35.500Z,102893.11
2018-09-25T13:08:10.559Z,102890.67
2018-09-25T13:10:45.575Z,102891.72
2018-09-25T13:13:20.573Z,102892.80
2018-09-25T13:15:56.138Z,102887.72
2018-09-25T13:18:31.001Z,102886.51
2018-09-25T13:21:05.801Z,102875.50
2018-09-25T13:23:42.418Z,102870.66
2018-09-25T13:26:17.379Z,102857.45
2018-09-25T13:28:52.392Z,102861.22
2018-09-25T13:31:27.407Z,102858.92
2018-09-25T13:34:02.452Z,102856.87
2018-09-25T13:36:37.548Z,102855.48
2018-09-25T13:39:14.636Z,102852.12
2018-09-25T13:41:49.722Z,102846.20
2018-09-25T13:44:24.860Z,102843.41
2018-09-25T13:46:59.954Z,102835.78
2018-09-25T13:49:35.064Z,102834.66
2018-09-25T13:52:10.107Z,102820.95
2018-09-25T13:54:45.135Z,102821.69
2018-09-25T13:57:20.175Z,102811.50
2018-09-25T13:59:55.335Z,102813.03
2018-09-25T14:02:30.239Z,102810.73
2018-09-25T14:05:05.119Z,102809.02
2018-09-25T14:07:40.300Z,102805.08
2018-09-25T14:10:15.317Z,102806.37
2018-09-25T14:12:50.419Z,102805.16
2018-09-25T14:15:25.411Z,102798.06
2018-09-25T14:18:00.456Z,102792.89
2018-09-25T14:20:35.542Z,102795.93
2018-09-25T14:23:10.552Z,102797.08
2018-09-25T14:25:45.428Z,102798.00
2018-09-25T14:28:20.470Z,102799.70
2018-09-25T14:30:55.446Z,102789.45
2018-09-25T14:33:30.381Z,102790.53
2018-09-25T14:36:05.526Z,102785.19
2018-09-25T14:38:40.602Z,102784.84
2018-09-25T14:41:15.611Z,102780.82
2018-09-25T14:43:50.505Z,102781.23
2018-09-25T14:46:25.647Z,102783.25
2018-09-25T14:49:00.741Z,102770.88
2018-09-25T14:51:35.684Z,102769.37
2018-09-25T14:54:10.616Z,102766.03
2018-09-25T14:56:45.653Z,102764.28
2018-09-25T14:59:20.591Z,102765.43
2018-09-25T15:01:55.691Z,102755.77
2018-09-25T15:04:30.699Z,102750.82
2018-09-25T15:07:05.767Z,102748.34
2018-09-25T15:09:40.702Z,102743.67
2018-09-25T15:12:15.812Z,102747.62
2018-09-25T15:14:50.733Z,102738.20
2018-09-25T15:17:25.773Z,102739.42
2018-09-25T15:20:00.837Z,102738.70
2018-09-25T15:22:35.863Z,102743.88
2018-09-25T15:25:11.016Z,102739.06
2018-09-25T15:27:46.043Z,102739.00
2018-09-25T15:30:21.120Z,102738.10
2018-09-25T15:32:56.479Z,102733.61
2018-09-25T15:35:31.364Z,102732.70
2018-09-25T15:38:06.372Z,102736.26
2018-09-25T15:40:41.397Z,102733.41
2018-09-25T15:43:16.236Z,102731.69
2018-09-25T15:45:51.293Z,102738.07
2018-09-25T15:48:26.232Z,102728.82
2018-09-25T15:51:01.332Z,102727.14
2018-09-25T15:53:36.294Z,102732.39
2018-09-25T15:56:11.334Z,102734.02
2018-09-25T15:58:46.226Z,102726.23
2018-09-25T16:01:21.290Z,102728.19
2018-09-25T16:03:56.263Z,102720.64
2018-09-25T16:06:31.295Z,102721.45
2018-09-25T16:09:06.416Z,102720.63
2018-09-25T16:11:41.444Z,102719.51
2018-09-25T16:14:16.622Z,102728.17
2018-09-25T16:16:51.427Z,102723.15
2018-09-25T16:19:26.465Z,102723.66
2018-09-25T16:22:01.644Z,102728.13
2018-09-25T16:24:36.543Z,102727.53
2018-09-25T16:27:11.571Z,102725.53
2018-09-25T16:29:46.529Z,102730.80
2018-09-25T16:32:21.476Z,102729.59
2018-09-25T16:34:56.459Z,102731.76
2018-09-25T16:37:31.458Z,102739.23
2018-09-25T16:40:06.535Z,102737.52
2018-09-25T16:42:41.755Z,102745.58
2018-09-25T16:45:16.959Z,102740.19
2018-09-25T16:47:51.972Z,102742.36
2018-09-25T16:50:26.902Z,102744.83
2018-09-25T16:53:01.899Z,102742.85
2018-09-25T16:55:36.871Z,102747.01
2018-09-25T16:58:11.936Z,102750.02
2018-09-25T17:00:46.977Z,102748.58
2018-09-25T17:03:22.019Z,102747.16
2018-09-25T17:05:56.995Z,102746.87
2018-09-25T17:08:32.053Z,102748.22
2018-09-25T17:11:07.130Z,102757.62
2018-09-25T17:13:42.178Z,102753.94
2018-09-25T17:16:17.356Z,102740.36
2018-09-25T17:18:52.335Z,102748.40
2018-09-25T17:21:27.320Z,102751.20
2018-09-25T17:24:02.421Z,102759.47
2018-09-25T17:26:37.368Z,102769.37
2018-09-25T17:29:12.445Z,102773.46
2018-09-25T17:31:47.879Z,102772.84
2018-09-25T17:34:23.070Z,102766.06
2018-09-25T17:36:58.322Z,102774.31
2018-09-25T17:39:33.416Z,102780.56
2018-09-25T17:42:08.487Z,102776.34
2018-09-25T17:44:43.601Z,102772.88
2018-09-25T17:47:18.587Z,102773.61
2018-09-25T17:49:53.603Z,102775.16
2018-09-25T17:52:28.678Z,102777.80
2018-09-25T17:55:03.708Z,102774.88
2018-09-25T17:57:38.763Z,102780.22
2018-09-25T18:00:16.068Z,102782.79
2018-09-25T18:02:51.131Z,102790.91
2018-09-25T18:05:26.226Z,102796.53
2018-09-25T18:08:01.083Z,102791.09
2018-09-25T18:10:36.171Z,102795.86
2018-09-25T18:13:11.954Z,102791.23
2018-09-25T18:15:46.996Z,102795.17
2018-09-25T18:18:22.106Z,102789.72
2018-09-25T18:20:57.194Z,102783.16
2018-09-25T18:23:32.094Z,102786.25
2018-09-25T18:26:08.053Z,102791.53
2018-09-25T18:28:43.112Z,102800.70
2018-09-25T18:31:18.014Z,102797.70
2018-09-25T18:33:55.032Z,102808.48
2018-09-25T18:36:30.128Z,102803.81
2018-09-25T18:39:05.140Z,102799.99
2018-09-25T18:41:40.203Z,102807.47
2018-09-25T18:44:15.197Z,102800.02
2018-09-25T18:46:50.261Z,102798.10
2018-09-25T18:49:25.289Z,102802.55
2018-09-25T18:52:00.323Z,102820.20
2018-09-25T18:54:38.917Z,102810.55
2018-09-25T18:57:14.006Z,102811.94
2018-09-25T18:59:48.990Z,102818.56
2018-09-25T19:02:23.903Z,102813.59
2018-09-25T19:04:58.936Z,102803.14
2018-09-25T19:07:33.943Z,102810.28
2018-09-25T19:10:08.943Z,102818.00
2018-09-25T19:12:43.861Z,102815.80
2018-09-25T19:15:19.075Z,102813.88
2018-09-25T19:17:55.361Z,102815.26
2018-09-25T19:20:30.998Z,102807.00
2018-09-25T19:23:06.204Z,102810.55
2018-09-25T19:25:41.184Z,102814.96
2018-09-25T19:28:16.276Z,102815.52
2018-09-25T19:30:51.169Z,102814.66
2018-09-25T19:33:26.155Z,102810.82
2018-09-25T19:36:02.204Z,102807.47
2018-09-25T19:38:36.977Z,102806.94
2018-09-25T19:41:14.194Z,102807.73
2018-09-25T19:43:49.102Z,102809.09
2018-09-25T19:46:24.622Z,102813.23
2018-09-25T19:48:59.795Z,102823.13
2018-09-25T19:51:34.804Z,102817.59
2018-09-25T19:54:10.221Z,102820.07
2018-09-25T19:56:45.075Z,102814.02
2018-09-25T19:59:20.654Z,102821.71
2018-09-25T20:01:55.719Z,102817.31
2018-09-25T20:04:30.984Z,102812.06
2018-09-25T20:07:06.792Z,102818.66
2018-09-25T20:09:42.491Z,102814.53
2018-09-25T20:12:17.646Z,102817.81
2018-09-25T20:14:52.905Z,102816.16
2018-09-25T20:17:28.010Z,102815.36
2018-09-25T20:20:03.127Z,102800.76
2018-09-25T20:22:38.119Z,102790.31
2018-09-25T20:25:13.217Z,102778.76
2018-09-25T20:27:48.940Z,102775.73
2018-09-25T20:30:25.247Z,102779.58
2018-09-25T20:33:01.524Z,102785.90
2018-09-25T20:35:36.591Z,102785.63
2018-09-25T20:38:11.705Z,102790.56
2018-09-25T20:40:46.669Z,102790.01
2018-09-25T20:43:21.712Z,102799.08
2018-09-25T20:45:56.769Z,102800.44
2018-09-25T20:48:32.731Z,102808.69
2018-09-25T20:51:07.589Z,102813.63
2018-09-25T20:53:42.459Z,102805.92
2018-09-25T20:56:17.589Z,102795.17
2018-09-25T20:58:52.699Z,102785.53
2018-09-25T21:01:27.660Z,102784.44
2018-09-25T21:04:02.538Z,102781.66
2018-09-25T21:06:37.433Z,102777.82
2018-09-25T21:09:15.043Z,102770.92
2018-09-25T21:11:50.112Z,102775.34
2018-09-25T21:14:25.863Z,102773.12
2018-09-25T21:17:00.924Z,102768.44
2018-09-25T21:19:35.949Z,102769.25
2018-09-25T21:22:10.934Z,102754.12
2018-09-25T21:24:45.918Z,102750.57
2018-09-25T21:27:21.019Z,102745.60
2018-09-25T21:29:56.040Z,102736.80
2018-09-25T21:32:30.872Z,102732.40
2018-09-25T21:35:05.807Z,102739.27
2018-09-25T21:37:40.904Z,102755.20
2018-09-25T21:40:16.139Z,102763.17
2018-09-25T21:42:51.058Z,102765.93
2018-09-25T21:45:26.077Z,102768.94
2018-09-25T21:48:01.041Z,102764.78
2018-09-25T21:50:36.067Z,102763.41
2018-09-25T21:53:11.164Z,102768.87
2018-09-25T21:55:46.217Z,102769.17
2018-09-25T21:58:21.110Z,102755.69
2018-09-25T22:00:56.180Z,102760.62
2018-09-25T22:03:31.206Z,102761.16
2018-09-25T22:06:06.201Z,102745.20
2018-09-25T22:08:41.062Z,102733.66
2018-09-25T22:11:16.032Z,102724.57
2018-09-25T22:13:51.746Z,102728.13
2018-09-25T22:16:26.797Z,102739.63
2018-09-25T22:19:01.801Z,102731.92
2018-09-25T22:21:36.904Z,102725.05
2018-09-25T22:24:11.899Z,102712.95
2018-09-25T22:26:46.951Z,102710.73
2018-09-25T22:29:22.040Z,102704.12
2018-09-25T22:31:57.180Z,102701.63
2018-09-25T22:34:34.376Z,102709.02
2018-09-25T22:37:10.303Z,102698.57
2018-09-25T22:39:45.363Z,102694.98
2018-09-25T22:42:20.986Z,102681.78
2018-09-25T22:44:56.057Z,102685.59
2018-09-25T22:47:31.054Z,102696.58
2018-09-25T22:50:05.981Z,102694.92
2018-09-25T22:52:40.903Z,102688.31
2018-09-25T22:55:15.841Z,102691.59
2018-09-25T22:57:50.694Z,102688.03
2018-09-25T23:00:25.704Z,102683.36
2018-09-25T23:03:00.539Z,102687.47
2018-09-25T23:05:35.607Z,102683.61
2018-09-25T23:08:10.509Z,102680.33
2018-09-25T23:10:45.575Z,102677.86
2018-09-25T23:13:21.312Z,102667.97
2018-09-25T23:15:57.391Z,102668.81
2018-09-25T23:18:32.223Z,102665.82
2018-09-25T23:21:07.284Z,102665.56
2018-09-25T23:23:43.399Z,102660.88
2018-09-25T23:26:18.403Z,102652.12
2018-09-25T23:28:53.349Z,102649.09
2018-09-25T23:31:28.306Z,102640.04
2018-09-25T23:34:03.454Z,102643.34
2018-09-25T23:36:38.501Z,102648.02
2018-09-25T23:39:14.235Z,102653.80
2018-09-25T23:43:50.118Z,102650.23
2018-09-25T23:46:26.918Z,102656.28
2018-09-25T23:50:04.616Z,102661.24
2018-09-25T23:53:41.481Z,102658.49
2018-09-25T23:56:18.135Z,102657.13
2018-09-25T23:59:09.164Z,102667.55
